KRRL/RRL METAR and TAF weather

Enter ICAO airport designator
Station Type Date Time Source
KRRL METAR 2020/09/20 01:35 UTC NOAA

KRRL 200135Z AUTO 21003KT 10SM OVC070 13/08 A3026 RMK AO2 T01310080 TSNO


Station Type Date Time Source
KRRL Decoded METAR 2020/09/20 01:35 UTC NOAA

Merrill, Merrill Municipal Airport, WI, United States (KRRL) 45-11N 089-42W
Sep 19, 2020 - 09:35 PM EDT / 2020.09.20 0135 UTC
Wind: from the SSW (210 degrees) at 3 MPH (3 KT):0
Visibility: 10 mile(s):0
Sky conditions: overcast
Temperature: 55.6 F (13.1 C)
Dew Point: 46.4 F (8.0 C)
Relative Humidity: 71%
Pressure (altimeter): 30.26 in. Hg (1024 hPa)
ob: KRRL 200135Z AUTO 21003KT 10SM OVC070 13/08 A3026 RMK AO2 T01310080 TSNO
cycle: 1

Station Type Date Time Source
KRRL TAF UTC NOAA

Error!

Example: see airport list